createdAt,value
2022-10-24T00:02:26.493Z,100180.53
2022-10-24T00:04:52.948Z,100181.53
2022-10-24T00:07:19.238Z,100184.44
2022-10-24T00:09:45.533Z,100183.19
2022-10-24T00:12:11.843Z,100174.16
2022-10-24T00:14:39.531Z,100171.47
2022-10-24T00:17:05.862Z,100167.75
2022-10-24T00:19:32.133Z,100164.47
2022-10-24T00:21:58.461Z,100165.69
2022-10-24T00:24:24.753Z,100177.63
2022-10-24T00:26:51.056Z,100170.03
2022-10-24T00:29:17.471Z,100166.50
2022-10-24T00:31:45.127Z,100176.38
2022-10-24T00:34:11.699Z,100178.03
2022-10-24T00:36:38.263Z,100170.00
2022-10-24T00:39:04.602Z,100184.59
2022-10-24T00:41:32.881Z,100180.06
2022-10-24T00:44:26.094Z,100179.25
2022-10-24T00:46:54.931Z,100169.38
2022-10-24T00:49:22.687Z,100172.66
2022-10-24T00:51:50.750Z,100172.25
2022-10-24T00:54:17.072Z,100171.03
2022-10-24T00:56:47.322Z,100161.13
2022-10-24T00:59:14.623Z,100160.34
2022-10-24T01:01:42.151Z,100164.03
2022-10-24T01:04:11.986Z,100160.34
2022-10-24T01:06:44.707Z,100162.63
2022-10-24T01:09:18.296Z,100168.38
2022-10-24T01:11:48.838Z,100176.81
2022-10-24T01:14:22.158Z,100182.19
2022-10-24T01:16:50.334Z,100169.25
2022-10-24T01:19:29.021Z,100175.22
2022-10-24T01:21:57.529Z,100161.59
2022-10-24T01:24:36.917Z,100162.03
2022-10-24T01:27:09.381Z,100157.50
2022-10-24T01:29:55.972Z,100152.94
2022-10-24T01:32:28.416Z,100155.44
2022-10-24T01:34:57.919Z,100161.81
2022-10-24T01:37:28.987Z,100154.59
2022-10-24T01:39:57.620Z,100152.34
2022-10-24T01:42:24.303Z,100140.38
2022-10-24T01:44:53.663Z,100140.38
2022-10-24T01:47:22.724Z,100139.94
2022-10-24T01:49:52.564Z,100134.78
2022-10-24T01:52:19.524Z,100135.78
2022-10-24T01:54:46.249Z,100129.41
2022-10-24T01:57:13.148Z,100135.63
2022-10-24T01:59:40.895Z,100126.97
2022-10-24T02:02:09.903Z,100125.31
2022-10-24T02:04:38.741Z,100123.25
2022-10-24T02:07:07.739Z,100128.19
2022-10-24T02:09:35.075Z,100117.88
2022-10-24T02:12:01.360Z,100120.56
2022-10-24T02:14:28.279Z,100126.13
2022-10-24T02:16:54.584Z,100118.28
2022-10-24T02:19:21.273Z,100129.00
2022-10-24T02:21:52.959Z,100125.34
2022-10-24T02:24:21.806Z,100116.25
2022-10-24T02:26:51.186Z,100124.94
2022-10-24T02:29:19.569Z,100118.75
2022-10-24T02:31:49.509Z,100113.59
2022-10-24T02:34:17.842Z,100122.66
2022-10-24T02:36:45.387Z,100121.22
2022-10-24T02:39:13.400Z,100123.47
2022-10-24T02:41:40.647Z,100116.47
2022-10-24T02:44:08.045Z,100124.69
2022-10-24T02:46:34.662Z,100113.16
2022-10-24T02:49:01.932Z,100126.53
2022-10-24T02:51:29.484Z,100127.75
2022-10-24T02:53:55.918Z,100115.63
2022-10-24T02:56:23.672Z,100115.19
2022-10-24T02:58:50.001Z,100121.34
2022-10-24T03:01:16.338Z,100122.63
2022-10-24T03:03:42.713Z,100125.72
2022-10-24T03:06:09.148Z,100128.81
2022-10-24T03:08:35.450Z,100115.22
2022-10-24T03:11:01.746Z,100127.38
2022-10-24T03:13:29.711Z,100126.97
2022-10-24T03:15:55.989Z,100123.88
2022-10-24T03:18:22.309Z,100120.97
2022-10-24T03:20:48.606Z,100113.94
2022-10-24T03:23:15.138Z,100127.34
2022-10-24T03:25:41.438Z,100111.25
2022-10-24T03:28:07.798Z,100114.72
2022-10-24T03:30:35.455Z,100117.41
2022-10-24T03:33:01.775Z,100118.84
2022-10-24T03:35:28.691Z,100117.81
2022-10-24T03:37:55.032Z,100120.53
2022-10-24T03:40:21.312Z,100117.25
2022-10-24T03:42:47.950Z,100122.38
2022-10-24T03:45:14.517Z,100119.13
2022-10-24T03:47:42.196Z,100121.56
2022-10-24T03:50:08.716Z,100114.75
2022-10-24T03:52:34.999Z,100123.22
2022-10-24T03:55:01.307Z,100117.03
2022-10-24T03:57:27.680Z,100123.59
2022-10-24T03:59:53.976Z,100118.28
2022-10-24T04:02:20.262Z,100124.69
2022-10-24T04:04:47.920Z,100123.22
2022-10-24T04:07:14.217Z,100117.28
2022-10-24T04:09:40.582Z,100120.31
2022-10-24T04:12:06.881Z,100124.47
2022-10-24T04:14:33.282Z,100119.75
2022-10-24T04:16:59.582Z,100134.34
2022-10-24T04:19:25.883Z,100127.53
2022-10-24T04:21:53.545Z,100127.34
2022-10-24T04:24:19.864Z,100129.81
2022-10-24T04:26:46.198Z,100122.19
2022-10-24T04:29:12.574Z,100125.91
2022-10-24T04:31:38.863Z,100121.81
2022-10-24T04:34:05.201Z,100108.81
2022-10-24T04:36:31.631Z,100116.69
2022-10-24T04:41:30.519Z,100109.88
2022-10-24T04:43:56.834Z,100112.13
2022-10-24T04:46:23.171Z,100116.69
2022-10-24T04:48:49.507Z,100117.09
2022-10-24T04:51:18.640Z,100122.25
2022-10-24T04:53:47.910Z,100122.47
2022-10-24T04:56:15.594Z,100133.19
2022-10-24T04:58:41.893Z,100130.09
2022-10-24T05:01:08.367Z,100133.16
2022-10-24T05:03:34.688Z,100140.38
2022-10-24T05:06:00.973Z,100139.78
2022-10-24T05:08:27.272Z,100141.84
2022-10-24T05:10:53.565Z,100138.94
2022-10-24T05:13:21.185Z,100139.38
2022-10-24T05:15:47.502Z,100137.94
2022-10-24T05:18:13.846Z,100128.03
2022-10-24T05:23:07.365Z,100138.31
2022-10-24T05:25:33.664Z,100144.94
2022-10-24T05:27:59.951Z,100139.56
2022-10-24T05:30:27.639Z,100144.72
2022-10-24T05:32:53.931Z,100151.34
2022-10-24T05:35:20.256Z,100163.28
2022-10-24T05:37:46.551Z,100162.66
2022-10-24T05:40:13.142Z,100158.31
2022-10-24T05:42:39.460Z,100156.25
2022-10-24T05:45:06.140Z,100171.09
2022-10-24T05:47:33.995Z,100164.53
2022-10-24T05:50:00.308Z,100159.16
2022-10-24T05:52:26.631Z,100158.53
2022-10-24T05:55:06.846Z,100166.75
2022-10-24T05:57:33.831Z,100170.69
2022-10-24T06:00:00.345Z,100165.31
2022-10-24T06:02:26.683Z,100186.78
2022-10-24T06:04:54.390Z,100170.69
2022-10-24T06:07:20.707Z,100170.47
2022-10-24T06:09:47.210Z,100177.47
2022-10-24T06:12:13.918Z,100177.47
2022-10-24T06:14:40.493Z,100178.09
2022-10-24T06:17:06.871Z,100175.41
2022-10-24T06:19:33.159Z,100177.69
2022-10-24T06:22:00.782Z,100181.19
2022-10-24T06:24:27.059Z,100169.22
2022-10-24T06:26:53.455Z,100184.69
2022-10-24T06:29:19.745Z,100190.47
2022-10-24T06:31:46.027Z,100187.16
2022-10-24T06:34:12.386Z,100177.91
2022-10-24T06:36:38.788Z,100195.63
2022-10-24T06:39:06.445Z,100199.72
2022-10-24T06:41:32.745Z,100199.94
2022-10-24T06:43:59.021Z,100204.88
2022-10-24T06:46:25.593Z,100214.56
2022-10-24T06:48:53.401Z,100213.75
2022-10-24T06:51:19.699Z,100204.88
2022-10-24T06:53:45.991Z,100214.78
2022-10-24T06:56:13.823Z,100208.41
2022-10-24T06:58:40.549Z,100216.00
2022-10-24T07:01:07.784Z,100216.44
2022-10-24T07:03:34.192Z,100223.84
2022-10-24T07:06:05.178Z,100223.44
2022-10-24T07:08:31.473Z,100221.78
2022-10-24T07:10:57.767Z,100223.81
2022-10-24T07:13:25.417Z,100228.34
2022-10-24T07:15:51.709Z,100234.34
2022-10-24T07:18:18.118Z,100235.97
2022-10-24T07:20:44.443Z,100234.13
2022-10-24T07:23:10.746Z,100230.03
2022-10-24T07:25:37.611Z,100239.94
2022-10-24T07:28:04.085Z,100249.00
2022-10-24T07:30:31.869Z,100249.41
2022-10-24T07:32:58.202Z,100254.34
2022-10-24T07:35:24.583Z,100245.28
2022-10-24T07:37:50.930Z,100240.94
2022-10-24T07:40:17.698Z,100255.78
2022-10-24T07:42:43.974Z,100251.44
2022-10-24T07:45:10.735Z,100252.50
2022-10-24T07:47:38.366Z,100267.34
2022-10-24T07:50:05.300Z,100258.06
2022-10-24T07:52:31.587Z,100262.59
2022-10-24T07:54:57.995Z,100258.88
2022-10-24T07:57:24.545Z,100264.44
2022-10-24T07:59:51.022Z,100279.06
2022-10-24T08:02:18.887Z,100266.28
2022-10-24T08:04:46.543Z,100275.56
2022-10-24T08:07:13.309Z,100272.88
2022-10-24T08:09:40.468Z,100270.81
2022-10-24T08:12:06.867Z,100279.91
2022-10-24T08:14:33.185Z,100288.13
2022-10-24T08:16:59.459Z,100289.59
2022-10-24T08:21:58.746Z,100294.31
2022-10-24T08:24:25.213Z,100298.69
2022-10-24T08:26:51.783Z,100306.91
2022-10-24T08:29:18.354Z,100307.31
2022-10-24T08:31:44.662Z,100305.47
2022-10-24T08:34:10.998Z,100311.84
2022-10-24T08:36:37.302Z,100307.31
2022-10-24T08:39:05.160Z,100305.47
2022-10-24T08:41:32.598Z,100314.72
2022-10-24T08:44:00.416Z,100317.22
2022-10-24T08:46:33.845Z,100316.78
2022-10-24T08:49:02.650Z,100321.56
2022-10-24T08:51:34.474Z,100323.41
2022-10-24T08:54:01.454Z,100328.31
2022-10-24T08:56:29.751Z,100324.63
2022-10-24T08:58:57.237Z,100329.56
2022-10-24T09:01:32.623Z,100333.91
2022-10-24T09:04:00.840Z,100339.06
2022-10-24T09:06:28.666Z,100338.81
2022-10-24T09:08:56.525Z,100335.72
2022-10-24T09:11:26.128Z,100333.66
2022-10-24T09:13:53.956Z,100343.53
2022-10-24T09:16:21.466Z,100353.03
2022-10-24T09:18:49.320Z,100347.06
2022-10-24T09:21:15.809Z,100350.78
2022-10-24T09:23:42.367Z,100351.41
2022-10-24T09:26:15.593Z,100355.06
2022-10-24T09:28:42.113Z,100343.47
2022-10-24T09:31:14.865Z,100349.81
2022-10-24T09:33:41.778Z,100356.03
2022-10-24T09:36:10.213Z,100351.53
2022-10-24T09:38:36.993Z,100348.00
2022-10-24T09:41:05.468Z,100360.00
2022-10-24T09:43:33.722Z,100356.22
2022-10-24T09:46:02.491Z,100363.44
2022-10-24T09:48:32.587Z,100368.00
2022-10-24T09:50:59.742Z,100372.53
2022-10-24T09:53:27.596Z,100379.94
2022-10-24T09:55:54.778Z,100389.50
2022-10-24T09:58:22.011Z,100386.56
2022-10-24T10:00:57.736Z,100385.75
2022-10-24T10:03:24.406Z,100385.31
2022-10-24T10:05:53.083Z,100384.09
2022-10-24T10:08:20.550Z,100393.00
2022-10-24T10:10:55.945Z,100394.81
2022-10-24T10:13:22.672Z,100395.78
2022-10-24T10:15:50.008Z,100399.88
2022-10-24T10:18:24.209Z,100401.06
2022-10-24T10:20:59.156Z,100401.69
2022-10-24T10:23:26.833Z,100391.97
2022-10-24T10:26:04.273Z,100406.38
2022-10-24T10:28:33.367Z,100396.41
2022-10-24T10:31:00.300Z,100398.63
2022-10-24T10:33:30.354Z,100405.53
2022-10-24T10:36:03.587Z,100403.63
2022-10-24T10:38:36.854Z,100414.56
2022-10-24T10:41:07.683Z,100412.47
2022-10-24T10:43:37.790Z,100423.38
2022-10-24T10:46:12.818Z,100423.56
2022-10-24T10:48:45.332Z,100427.22
2022-10-24T10:51:17.028Z,100430.13
2022-10-24T10:53:46.313Z,100427.44
2022-10-24T10:56:17.673Z,100429.50
2022-10-24T10:58:48.748Z,100427.84
2022-10-24T11:01:19.938Z,100427.41
2022-10-24T11:03:50.550Z,100422.41
2022-10-24T11:06:30.519Z,100425.31
2022-10-24T11:09:08.666Z,100430.97
2022-10-24T11:11:37.103Z,100435.41
2022-10-24T11:14:10.852Z,100445.81
2022-10-24T11:16:38.835Z,100441.34
2022-10-24T11:19:21.655Z,100435.25
2022-10-24T11:21:49.951Z,100449.75
2022-10-24T11:24:18.541Z,100444.63
2022-10-24T11:26:46.150Z,100450.00
2022-10-24T11:29:15.562Z,100449.78
2022-10-24T11:31:44.640Z,100452.47
2022-10-24T11:34:14.004Z,100457.78
2022-10-24T11:36:43.088Z,100460.63
2022-10-24T11:39:14.976Z,100454.13
2022-10-24T11:41:46.241Z,100457.22
2022-10-24T11:44:26.298Z,100464.84
2022-10-24T11:47:01.884Z,100463.00
2022-10-24T11:49:33.867Z,100464.69
2022-10-24T11:52:01.514Z,100465.72
2022-10-24T11:54:33.747Z,100465.19
2022-10-24T11:57:02.545Z,100462.50
2022-10-24T11:59:28.938Z,100471.03
2022-10-24T12:02:22.006Z,100471.03
2022-10-24T12:04:59.068Z,100468.09
2022-10-24T12:07:43.187Z,100475.72
2022-10-24T12:10:19.649Z,100476.91
2022-10-24T12:12:56.870Z,100456.78
2022-10-24T12:15:30.341Z,100469.41
2022-10-24T12:18:02.033Z,100462.81
2022-10-24T12:20:28.620Z,100457.81
2022-10-24T12:22:55.796Z,100464.50
2022-10-24T12:25:27.762Z,100459.38
2022-10-24T12:27:55.193Z,100468.56
2022-10-24T12:30:22.452Z,100464.06
2022-10-24T12:32:49.863Z,100472.59
2022-10-24T12:35:35.219Z,100465.81
2022-10-24T12:38:01.870Z,100462.75
2022-10-24T12:40:50.077Z,100488.63
2022-10-24T12:43:26.567Z,100495.22
2022-10-24T12:45:52.863Z,100486.97
2022-10-24T12:48:28.556Z,100484.91
2022-10-24T12:51:03.648Z,100484.06
2022-10-24T12:53:34.839Z,100476.47
2022-10-24T12:56:07.583Z,100482.47
2022-10-24T12:58:35.403Z,100471.75
2022-10-24T13:01:03.873Z,100483.94
2022-10-24T13:03:39.157Z,100488.28
2022-10-24T13:06:06.606Z,100479.81
2022-10-24T13:08:43.767Z,100487.03
2022-10-24T13:11:21.431Z,100476.72
2022-10-24T13:13:57.021Z,100488.28
2022-10-24T13:16:28.295Z,100477.97
2022-10-24T13:19:03.047Z,100476.31
2022-10-24T13:21:30.469Z,100473.63
2022-10-24T13:24:10.012Z,100485.81
2022-10-24T13:26:39.012Z,100490.75
2022-10-24T13:29:05.670Z,100491.59
2022-10-24T13:31:39.345Z,100490.34
2022-10-24T13:34:23.261Z,100489.94
2022-10-24T13:36:51.246Z,100482.50
2022-10-24T13:39:19.033Z,100493.03
2022-10-24T13:41:48.814Z,100489.53
2022-10-24T13:44:20.221Z,100487.25
2022-10-24T13:46:51.690Z,100484.34
2022-10-24T13:49:22.460Z,100476.53
2022-10-24T13:51:50.830Z,100476.94
2022-10-24T13:54:20.489Z,100489.13
2022-10-24T13:56:48.191Z,100493.22
2022-10-24T13:59:27.693Z,100494.88
2022-10-24T14:01:54.201Z,100496.31
2022-10-24T14:04:20.529Z,100491.97
2022-10-24T14:06:46.864Z,100496.91
2022-10-24T14:09:13.180Z,100499.22
2022-10-24T14:11:40.619Z,100503.94
2022-10-24T14:14:15.853Z,100505.34
2022-10-24T14:16:42.230Z,100500.44
2022-10-24T14:19:15.365Z,100508.28
2022-10-24T14:21:44.857Z,100506.00
2022-10-24T14:24:14.453Z,100504.78
2022-10-24T14:26:41.464Z,100505.78
2022-10-24T14:29:19.431Z,100510.56
2022-10-24T14:31:45.808Z,100518.41
2022-10-24T14:34:19.103Z,100514.47
2022-10-24T14:36:45.564Z,100521.91
2022-10-24T14:39:16.255Z,100511.38
2022-10-24T14:41:42.612Z,100513.25
2022-10-24T14:44:13.682Z,100507.88
2022-10-24T14:46:42.387Z,100514.47
2022-10-24T14:49:21.717Z,100510.75
2022-10-24T14:51:49.917Z,100516.31
2022-10-24T14:54:17.750Z,100525.00
2022-10-24T14:56:44.488Z,100523.78
2022-10-24T14:59:19.621Z,100517.19
2022-10-24T15:01:53.639Z,100518.22
2022-10-24T15:04:28.443Z,100519.84
2022-10-24T15:06:55.443Z,100529.56
2022-10-24T15:09:21.830Z,100525.47
2022-10-24T15:11:57.940Z,100531.22
2022-10-24T15:14:36.980Z,100533.91
2022-10-24T15:17:05.644Z,100538.63
2022-10-24T15:19:36.619Z,100535.34
2022-10-24T15:22:02.951Z,100541.34
2022-10-24T15:24:29.259Z,100546.91
2022-10-24T15:27:09.228Z,100536.38
2022-10-24T15:29:35.534Z,100547.13
2022-10-24T15:32:01.882Z,100548.53
2022-10-24T15:34:29.534Z,100549.16
2022-10-24T15:36:55.838Z,100551.19
2022-10-24T15:39:22.742Z,100547.28
2022-10-24T15:41:49.071Z,100554.91
2022-10-24T15:44:16.219Z,100558.03
2022-10-24T15:46:42.554Z,100555.53
2022-10-24T15:49:08.859Z,100561.09
2022-10-24T15:51:37.212Z,100564.41
2022-10-24T15:54:03.522Z,100564.53
2022-10-24T15:56:29.860Z,100575.69
2022-10-24T15:58:56.142Z,100581.84
2022-10-24T16:01:25.272Z,100574.81
2022-10-24T16:03:51.668Z,100581.16
2022-10-24T16:06:17.963Z,100589.16
2022-10-24T16:08:45.626Z,100594.09
2022-10-24T16:11:12.153Z,100595.09
2022-10-24T16:13:38.462Z,100589.28
2022-10-24T16:16:05.102Z,100589.28
2022-10-24T16:18:31.414Z,100594.19
2022-10-24T16:20:57.771Z,100589.44
2022-10-24T16:23:24.187Z,100592.50
2022-10-24T16:25:52.041Z,100595.38
2022-10-24T16:28:22.792Z,100592.06
2022-10-24T16:30:50.119Z,100607.53
2022-10-24T16:33:16.383Z,100611.22
2022-10-24T16:35:42.689Z,100601.09
2022-10-24T16:38:09.309Z,100597.56
2022-10-24T16:40:37.557Z,100593.84
2022-10-24T16:43:05.436Z,100602.06
2022-10-24T16:45:31.730Z,100606.97
2022-10-24T16:47:58.067Z,100607.81
2022-10-24T16:50:25.839Z,100610.88
2022-10-24T16:52:52.589Z,100618.91
2022-10-24T16:55:18.932Z,100612.91
2022-10-24T16:57:45.481Z,100604.88
2022-10-24T17:00:14.466Z,100606.94
2022-10-24T17:02:40.811Z,100612.31
2022-10-24T17:05:07.320Z,100621.53
2022-10-24T17:07:33.625Z,100621.28
2022-10-24T17:09:59.936Z,100622.53
2022-10-24T17:12:26.199Z,100616.69
2022-10-24T17:14:52.490Z,100624.28
2022-10-24T17:17:20.174Z,100626.53
2022-10-24T17:19:46.471Z,100623.41
2022-10-24T17:22:12.785Z,100628.09
2022-10-24T17:24:39.169Z,100631.81
2022-10-24T17:27:09.429Z,100624.38
2022-10-24T17:29:35.820Z,100622.25
2022-10-24T17:32:02.180Z,100629.44
2022-10-24T17:34:30.042Z,100634.34
2022-10-24T17:37:00.287Z,100638.44
2022-10-24T17:39:30.399Z,100634.50
2022-10-24T17:41:56.734Z,100648.06
2022-10-24T17:44:23.269Z,100648.06
2022-10-24T17:46:53.243Z,100657.91
2022-10-24T17:49:22.107Z,100654.41
2022-10-24T17:51:49.771Z,100657.91
2022-10-24T17:54:16.644Z,100658.75
2022-10-24T17:56:43.568Z,100656.06
2022-10-24T17:59:09.876Z,100661.44
2022-10-24T18:01:36.287Z,100657.91
2022-10-24T18:04:02.807Z,100662.25
2022-10-24T18:06:29.097Z,100652.56
2022-10-24T18:08:56.726Z,100659.78
2022-10-24T18:11:23.013Z,100661.63
2022-10-24T18:13:49.373Z,100659.94
2022-10-24T18:16:17.054Z,100662.63
2022-10-24T18:18:43.833Z,100666.97
2022-10-24T18:21:11.251Z,100655.63
2022-10-24T18:23:37.754Z,100667.97
2022-10-24T18:26:09.549Z,100666.13
2022-10-24T18:28:36.600Z,100661.63
2022-10-24T18:31:05.024Z,100669.47
2022-10-24T18:33:31.821Z,100672.97
2022-10-24T18:35:58.105Z,100668.63
2022-10-24T18:38:24.379Z,100689.03
2022-10-24T18:40:50.917Z,100689.84
2022-10-24T18:43:18.674Z,100692.53
2022-10-24T18:45:45.295Z,100691.69
2022-10-24T18:48:12.278Z,100678.50
2022-10-24T18:50:38.624Z,100693.06
2022-10-24T18:53:06.194Z,100694.13
2022-10-24T18:55:33.565Z,100695.31
2022-10-24T18:58:00.274Z,100691.00
2022-10-24T19:00:28.730Z,100688.31
2022-10-24T19:02:57.663Z,100689.31
2022-10-24T19:05:27.089Z,100687.84
2022-10-24T19:07:53.468Z,100691.94
2022-10-24T19:10:21.803Z,100687.31
2022-10-24T19:12:48.648Z,100685.03
2022-10-24T19:15:15.637Z,100690.13
2022-10-24T19:17:43.658Z,100678.31
2022-10-24T19:20:14.093Z,100687.56
2022-10-24T19:22:40.457Z,100687.09
2022-10-24T19:25:07.194Z,100693.63
2022-10-24T19:27:33.490Z,100697.31
2022-10-24T19:29:59.759Z,100705.53
2022-10-24T19:32:26.019Z,100707.59
2022-10-24T19:34:53.693Z,100696.88
2022-10-24T19:37:19.970Z,100710.81
2022-10-24T19:39:46.280Z,100712.34
2022-10-24T19:42:12.570Z,100718.63
2022-10-24T19:44:38.994Z,100718.19
2022-10-24T19:47:05.344Z,100717.72
2022-10-24T19:49:31.617Z,100722.09
2022-10-24T19:51:59.245Z,100727.00
2022-10-24T19:54:25.542Z,100730.03
2022-10-24T19:56:52.769Z,100718.84
2022-10-24T19:59:19.098Z,100718.41
2022-10-24T20:01:45.477Z,100723.28
2022-10-24T20:04:11.926Z,100726.31
2022-10-24T20:06:38.259Z,100721.53
2022-10-24T20:09:05.879Z,100723.72
2022-10-24T20:11:32.158Z,100718.09
2022-10-24T20:13:58.455Z,100712.13
2022-10-24T20:16:24.763Z,100726.66
2022-10-24T20:18:51.065Z,100731.53
2022-10-24T20:21:18.199Z,100725.34
2022-10-24T20:23:45.760Z,100727.38
2022-10-24T20:26:14.168Z,100732.06
2022-10-24T20:28:41.642Z,100728.56
2022-10-24T20:31:07.934Z,100727.25
2022-10-24T20:33:34.536Z,100733.78
2022-10-24T20:36:01.018Z,100736.63
2022-10-24T20:38:27.799Z,100744.00
2022-10-24T20:40:54.460Z,100746.47
2022-10-24T20:43:22.115Z,100752.84
2022-10-24T20:45:48.412Z,100755.53
2022-10-24T20:48:14.684Z,100749.97
2022-10-24T20:50:40.976Z,100749.63
2022-10-24T20:53:07.284Z,100748.97
2022-10-24T20:55:44.765Z,100754.31
2022-10-24T20:58:11.863Z,100745.03
2022-10-24T21:03:10.661Z,100754.38
2022-10-24T21:05:36.942Z,100754.56
2022-10-24T21:08:03.581Z,100750.22
2022-10-24T21:10:29.847Z,100758.63
2022-10-24T21:12:56.128Z,100755.28
2022-10-24T21:15:22.421Z,100758.97
2022-10-24T21:17:50.836Z,100765.47
2022-10-24T21:20:17.220Z,100777.34
2022-10-24T21:22:43.518Z,100781.00
2022-10-24T21:25:09.936Z,100788.38
2022-10-24T21:27:36.249Z,100795.72
2022-10-24T21:30:02.559Z,100808.25
2022-10-24T21:32:28.934Z,100808.59
2022-10-24T21:34:56.583Z,100805.75
2022-10-24T21:37:22.856Z,100807.75
2022-10-24T21:39:49.149Z,100811.44
2022-10-24T21:42:15.458Z,100813.25
2022-10-24T21:44:41.813Z,100815.94
2022-10-24T21:47:08.101Z,100813.94
2022-10-24T21:49:34.365Z,100815.59
2022-10-24T21:52:01.970Z,100827.59
2022-10-24T21:54:28.248Z,100826.22
2022-10-24T21:56:54.546Z,100822.19
2022-10-24T21:59:21.281Z,100826.53
2022-10-24T22:01:48.778Z,100822.69
2022-10-24T22:04:15.414Z,100825.81
2022-10-24T22:06:42.108Z,100841.31
2022-10-24T22:09:12.201Z,100832.28
2022-10-24T22:11:38.553Z,100824.94
2022-10-24T22:14:05.235Z,100827.41
2022-10-24T22:16:32.141Z,100830.91
2022-10-24T22:18:59.607Z,100820.22
2022-10-24T22:21:27.040Z,100834.78
2022-10-24T22:23:54.622Z,100828.78
2022-10-24T22:26:22.319Z,100833.13
2022-10-24T22:28:48.783Z,100842.97
2022-10-24T22:31:15.679Z,100844.63
2022-10-24T22:33:42.526Z,100845.47
2022-10-24T22:36:13.563Z,100845.66
2022-10-24T22:38:40.021Z,100849.97
2022-10-24T22:41:08.854Z,100846.66
2022-10-24T22:43:37.342Z,100851.16
2022-10-24T22:46:11.353Z,100843.81
2022-10-24T22:48:39.929Z,100846.16
2022-10-24T22:51:06.423Z,100849.66
2022-10-24T22:53:32.938Z,100853.16
2022-10-24T22:56:12.658Z,100852.81
2022-10-24T22:58:41.925Z,100856.16
2022-10-24T23:01:13.009Z,100858.16
2022-10-24T23:03:46.960Z,100864.34
2022-10-24T23:06:16.328Z,100865.16
2022-10-24T23:08:44.069Z,100875.13
2022-10-24T23:11:11.437Z,100880.47
2022-10-24T23:13:38.110Z,100876.78
2022-10-24T23:16:07.550Z,100885.47
2022-10-24T23:18:34.171Z,100890.56
2022-10-24T23:21:03.253Z,100893.56
2022-10-24T23:23:29.932Z,100895.69
2022-10-24T23:26:01.841Z,100895.84
2022-10-24T23:28:30.584Z,100902.88
2022-10-24T23:30:57.156Z,100900.69
2022-10-24T23:33:25.280Z,100906.69
2022-10-24T23:35:54.965Z,100906.03
2022-10-24T23:38:21.530Z,100909.69
2022-10-24T23:40:48.089Z,100915.69
2022-10-24T23:43:15.977Z,100906.50
2022-10-24T23:45:48.039Z,100909.34
2022-10-24T23:48:21.154Z,100911.03
2022-10-24T23:50:53.889Z,100913.69
2022-10-24T23:53:25.426Z,100920.88
2022-10-24T23:55:51.994Z,100923.00
2022-10-24T23:58:18.513Z,100917.81
